Palestine, TX

9:24 AM CST on February 14, 2016 (GMT -0600)
North Palestine | | Change Station
CLOSE
Current Station
Personal Weather Station
Location: Palestine, TX
Elevation: 581 ft
Nearby Weather Stations

Elev 581 ft 31.84 °N, 95.65 °W | Updated 4 minutes ago

Mostly Cloudy
Mostly Cloudy
61.2 °F
Feels Like 61.2 °F
N
8.0
Wind Variable Wind from South
Gusts 22.0 mph

Today
High -- | Low -- °F
--% Chance of Precip.
Yesterday
High -- | Low -- °F
Precip. -- in
Pressure 30.03 in
Visibility 10.0 miles
Clouds Scattered Clouds 1500 ft
Scattered Clouds 2200 ft
Dew Point 56 °F
Humidity 84%
Rainfall 0.00 in
Snow Depth Not available.
7:05 AM 6:08 PM
Waxing Crescent, 42% visible
METAR KPSN 141515Z AUTO 17009G17KT 10SM SCT015 SCT022 16/13 A3003 RMK AO2 T01660132
Pressure 30.03 in
Visibility 10.0 miles
Clouds Scattered Clouds 1500 ft
Scattered Clouds 2200 ft
Dew Point 56 °F
Humidity 84%
Rainfall 0.00 in
Snow Depth Not available.
7:05 AM 6:08 PM
Waxing Crescent, 42% visible
METAR KPSN 141515Z AUTO 17009G17KT 10SM SCT015 SCT022 16/13 A3003 RMK AO2 T01660132

10-Day Weather Forecast

Almanac

Astronomy

Feb. 14, 2016 Rise Set
Actual Time
Civil Twilight
Nautical Twilight
Astronomical Twilight
Moon
Length of Visible Light
Length of Day
Tomorrow will be .
, % of the Moon is Illuminated

Today's Extremes

State Highs State Lows

Community

WunderPhotos

Upload Photos

1,892,791 photos uploaded!

WunderBlog® & News

Nearby

Air Quality

  Air Quality AQ Index Pollutant
Not available.

Snow Depth

Station Depth Elevation

Earthquake Activity

City Distance Mag. Time & Date
Minimum magnitude displayed is 2.5.

Coastal Water Temperatures

Place Temperature

Stations

Nearby Weather Stations

Station Location Temp. Windchill Dew Point Humidity Wind Precip. Elev Updated Type
                   

Watches & Warnings

There are currently no watches in effect.